PWSweather.com
Personal Weather Stations
Station Observations

ChardChardGB

Lat: 50.877408, Lon: -2.94964741

Elevation: 341

Station Type: WS3083

http://www.merriott-astro.co.uk/weather/index.htm

Latest ConditionsUpdated 5:10:06 AM GMT Friday, Jun 23, 2017
Currently Today's Max Today's Min Today's Average
Temperature 58.6°F14.8°C 58.6°F14.8°C 55.4°F13.0°C 56.9°F13.8°C
Dew Point 49.3°F9.6°C 49.5°F9.7°C 47.4°F8.6°C 48.6°F9.2°C
Winds 5.0 mph W8.0 kmh W 5.1 mph WSW8.2 kmh WSW - 3.4 mph 5.5 kmh
Wind Gusts 6.9 mph11.1 kmh 9.8 mph15.8 kmh - -
Humidity 71% 76% 71% 74%
Pressure 29.70 in1005.8 mb 29.71 in1006.1 mb 29.69 in1005.4 mb -
Hour Temp Dew Point Humidity Winds Wind Gusts Pressure Precip Precip Rate Daily Precip Total
05:10 AM 58.6°F14.8°C 49.3°F9.6°C 71% 5.0 mph W8.0 kmh W 6.9 mph11.1 kmh 29.70 in1005.8 mb 0.00 in0.0 mm 0.00 in0.0 mm 0.00 in0.0 mm
05:00 AM 58.5°F14.7°C 49.1°F9.5°C 71% 3.8 mph NW6.1 kmh NW 6.0 mph9.7 kmh 29.71 in1006.1 mb 0.00 in0.0 mm 0.00 in0.0 mm 0.00 in0.0 mm
04:50 AM 58.3°F14.6°C 49.3°F9.6°C 72% 3.6 mph W5.8 kmh W 7.6 mph12.2 kmh 29.70 in1005.8 mb 0.00 in0.0 mm 0.00 in0.0 mm 0.00 in0.0 mm
04:40 AM 58.1°F14.5°C 49.1°F9.5°C 72% 5.1 mph WSW8.2 kmh WSW 9.8 mph15.8 kmh 29.70 in1005.8 mb 0.00 in0.0 mm 0.00 in0.0 mm 0.00 in0.0 mm
04:30 AM 57.9°F14.4°C 49.0°F9.4°C 72% 4.8 mph W7.7 kmh W 6.9 mph11.1 kmh 29.70 in1005.8 mb 0.00 in0.0 mm 0.00 in0.0 mm 0.00 in0.0 mm
04:20 AM 57.7°F14.3°C 49.2°F9.6°C 73% 2.5 mph WSW4.0 kmh WSW 5.4 mph8.7 kmh 29.70 in1005.8 mb 0.00 in0.0 mm 0.00 in0.0 mm 0.00 in0.0 mm
04:10 AM 57.7°F14.3°C 49.2°F9.6°C 73% 3.9 mph W6.3 kmh W 5.4 mph8.7 kmh 29.70 in1005.8 mb 0.00 in0.0 mm 0.00 in0.0 mm 0.00 in0.0 mm
04:00 AM 57.6°F14.2°C 49.0°F9.4°C 73% 4.9 mph WNW7.9 kmh WNW 7.6 mph12.2 kmh 29.70 in1005.8 mb 0.00 in0.0 mm 0.00 in0.0 mm 0.00 in0.0 mm
03:50 AM 57.6°F14.2°C 49.3°F9.6°C 74% 3.6 mph WSW5.8 kmh WSW 6.9 mph11.1 kmh 29.70 in1005.8 mb 0.00 in0.0 mm 0.00 in0.0 mm 0.00 in0.0 mm
03:40 AM 57.4°F14.1°C 49.5°F9.7°C 75% 2.6 mph NW4.2 kmh NW 5.4 mph8.7 kmh 29.70 in1005.8 mb 0.00 in0.0 mm 0.00 in0.0 mm 0.00 in0.0 mm
03:30 AM 57.2°F14.0°C 49.4°F9.7°C 75% 3.1 mph SW5.0 kmh SW 4.5 mph7.2 kmh 29.70 in1005.8 mb 0.00 in0.0 mm 0.00 in0.0 mm 0.00 in0.0 mm
03:20 AM 57.0°F13.9°C 49.5°F9.7°C 76% 2.8 mph SE4.5 kmh SE 6.0 mph9.7 kmh 29.70 in1005.8 mb 0.00 in0.0 mm 0.00 in0.0 mm 0.00 in0.0 mm
03:10 AM 56.7°F13.7°C 48.8°F9.3°C 75% 2.9 mph WSW4.7 kmh WSW 4.5 mph7.2 kmh 29.70 in1005.8 mb 0.00 in0.0 mm 0.00 in0.0 mm 0.00 in0.0 mm
03:00 AM 56.5°F13.6°C 48.7°F9.3°C 75% 3.4 mph W5.5 kmh W 7.6 mph12.2 kmh 29.70 in1005.8 mb 0.00 in0.0 mm 0.00 in0.0 mm 0.00 in0.0 mm
02:50 AM 57.0°F13.9°C 48.8°F9.3°C 74% 4.2 mph W6.8 kmh W 5.4 mph8.7 kmh 29.70 in1005.8 mb 0.00 in0.0 mm 0.00 in0.0 mm 0.00 in0.0 mm
02:40 AM 56.8°F13.8°C 48.7°F9.3°C 74% 3.2 mph W5.1 kmh W 5.4 mph8.7 kmh 29.70 in1005.8 mb 0.00 in0.0 mm 0.00 in0.0 mm 0.00 in0.0 mm
02:30 AM 56.8°F13.8°C 48.7°F9.3°C 74% 3.1 mph SW5.0 kmh SW 4.5 mph7.2 kmh 29.70 in1005.8 mb 0.00 in0.0 mm 0.00 in0.0 mm 0.00 in0.0 mm
02:20 AM 56.8°F13.8°C 48.7°F9.3°C 74% 4.3 mph SW6.9 kmh SW 5.4 mph8.7 kmh 29.70 in1005.8 mb 0.00 in0.0 mm 0.00 in0.0 mm 0.00 in0.0 mm
02:10 AM 56.7°F13.7°C 48.5°F9.2°C 74% 3.7 mph SW6.0 kmh SW 9.2 mph14.8 kmh 29.70 in1005.8 mb 0.00 in0.0 mm 0.00 in0.0 mm 0.00 in0.0 mm
02:00 AM 56.3°F13.5°C 48.5°F9.2°C 75% 2.3 mph SSW3.7 kmh SSW 3.8 mph6.1 kmh 29.70 in1005.8 mb 0.00 in0.0 mm 0.00 in0.0 mm 0.00 in0.0 mm
01:50 AM 56.1°F13.4°C 48.3°F9.1°C 75% 2.7 mph NNE4.3 kmh NNE 4.5 mph7.2 kmh 29.70 in1005.8 mb 0.00 in0.0 mm 0.00 in0.0 mm 0.00 in0.0 mm
01:40 AM 55.8°F13.2°C 48.0°F8.9°C 75% 4.6 mph W7.4 kmh W 6.9 mph11.1 kmh 29.70 in1005.8 mb 0.00 in0.0 mm 0.00 in0.0 mm 0.00 in0.0 mm
01:30 AM 55.6°F13.1°C 47.8°F8.8°C 75% 3.2 mph SW5.1 kmh SW 5.4 mph8.7 kmh 29.70 in1005.8 mb 0.00 in0.0 mm 0.00 in0.0 mm 0.00 in0.0 mm
01:20 AM 55.4°F13.0°C 47.6°F8.7°C 75% 1.2 mph WNW1.9 kmh WNW 3.8 mph6.1 kmh 29.70 in1005.8 mb 0.00 in0.0 mm 0.00 in0.0 mm 0.00 in0.0 mm
01:10 AM 55.6°F13.1°C 47.4°F8.6°C 74% 1.8 mph SW2.9 kmh SW 3.1 mph5.0 kmh 29.69 in1005.4 mb 0.00 in0.0 mm 0.00 in0.0 mm 0.00 in0.0 mm
01:00 AM 55.9°F13.3°C 48.1°F8.9°C 75% 2.8 mph S4.5 kmh S 3.8 mph6.1 kmh 29.69 in1005.4 mb 0.00 in0.0 mm 0.00 in0.0 mm 0.00 in0.0 mm
12:50 AM 55.9°F13.3°C 47.8°F8.8°C 74% 2.2 mph SW3.5 kmh SW 3.8 mph6.1 kmh 29.69 in1005.4 mb 0.00 in0.0 mm 0.00 in0.0 mm 0.00 in0.0 mm
12:40 AM 56.3°F13.5°C 48.1°F8.9°C 74% 3.3 mph W5.3 kmh W 5.4 mph8.7 kmh 29.70 in1005.8 mb 0.00 in0.0 mm 0.00 in0.0 mm 0.00 in0.0 mm
12:30 AM 56.3°F13.5°C 48.1°F8.9°C 74% 3.6 mph SW5.8 kmh SW 6.0 mph9.7 kmh 29.70 in1005.8 mb 0.00 in0.0 mm 0.00 in0.0 mm 0.00 in0.0 mm
12:20 AM 56.7°F13.7°C 48.1°F8.9°C 73% 2.7 mph WNW4.3 kmh WNW 4.5 mph7.2 kmh 29.70 in1005.8 mb 0.00 in0.0 mm 0.00 in0.0 mm 0.00 in0.0 mm
12:10 AM 56.8°F13.8°C 48.3°F9.1°C 73% 2.8 mph WSW4.5 kmh WSW 4.5 mph7.2 kmh 29.70 in1005.8 mb 0.00 in0.0 mm 0.00 in0.0 mm 0.00 in0.0 mm
12:00 AM 57.2°F14.0°C 48.6°F9.2°C 73% 3.7 mph W6.0 kmh W 9.8 mph15.8 kmh 29.70 in1005.8 mb 0.00 in0.0 mm 0.00 in0.0 mm 0.00 in0.0 mm